sensor_id;sensor_type;location;lat;lon;timestamp;P1;P2;P0
49914;PMS5003;35806;47.958;13.158;2022-12-10T00:01:37;33;29;
49914;PMS5003;35806;47.958;13.158;2022-12-10T00:04:06;24;23;
49914;PMS5003;35806;47.958;13.158;2022-12-10T00:06:34;33;29;
49914;PMS5003;35806;47.958;13.158;2022-12-10T00:09:04;29;24;
49914;PMS5003;35806;47.958;13.158;2022-12-10T00:11:33;29;29;
49914;PMS5003;35806;47.958;13.158;2022-12-10T00:14:00;35;23;
49914;PMS5003;35806;47.958;13.158;2022-12-10T00:16:27;23;23;
49914;PMS5003;35806;47.958;13.158;2022-12-10T00:18:56;27;24;
49914;PMS5003;35806;47.958;13.158;2022-12-10T00:21:25;23;22;
49914;PMS5003;35806;47.958;13.158;2022-12-10T00:23:54;34;30;
49914;PMS5003;35806;47.958;13.158;2022-12-10T00:26:23;41;36;
49914;PMS5003;35806;47.958;13.158;2022-12-10T00:28:52;44;36;
49914;PMS5003;35806;47.958;13.158;2022-12-10T00:31:20;28;27;
49914;PMS5003;35806;47.958;13.158;2022-12-10T00:33:50;39;31;
49914;PMS5003;35806;47.958;13.158;2022-12-10T00:36:20;35;31;
49914;PMS5003;35806;47.958;13.158;2022-12-10T00:38:49;37;30;
49914;PMS5003;35806;47.958;13.158;2022-12-10T00:41:17;33;30;
49914;PMS5003;35806;47.958;13.158;2022-12-10T00:43:45;35;31;
49914;PMS5003;35806;47.958;13.158;2022-12-10T00:46:17;34;29;
49914;PMS5003;35806;47.958;13.158;2022-12-10T00:48:46;25;25;
49914;PMS5003;35806;47.958;13.158;2022-12-10T00:51:14;35;33;
49914;PMS5003;35806;47.958;13.158;2022-12-10T00:53:44;34;28;
49914;PMS5003;35806;47.958;13.158;2022-12-10T00:56:14;39;37;
49914;PMS5003;35806;47.958;13.158;2022-12-10T00:58:43;36;33;
49914;PMS5003;35806;47.958;13.158;2022-12-10T01:01:11;36;32;
49914;PMS5003;35806;47.958;13.158;2022-12-10T01:03:41;30;29;
49914;PMS5003;35806;47.958;13.158;2022-12-10T01:06:10;34;34;
49914;PMS5003;35806;47.958;13.158;2022-12-10T01:08:39;32;29;
49914;PMS5003;35806;47.958;13.158;2022-12-10T01:11:07;27;26;
49914;PMS5003;35806;47.958;13.158;2022-12-10T01:13:41;41;34;
49914;PMS5003;35806;47.958;13.158;2022-12-10T01:16:10;30;30;
49914;PMS5003;35806;47.958;13.158;2022-12-10T01:18:39;28;25;
49914;PMS5003;35806;47.958;13.158;2022-12-10T01:21:09;26;24;
49914;PMS5003;35806;47.958;13.158;2022-12-10T01:23:39;33;23;
49914;PMS5003;35806;47.958;13.158;2022-12-10T01:26:07;32;26;
49914;PMS5003;35806;47.958;13.158;2022-12-10T01:28:37;32;30;
49914;PMS5003;35806;47.958;13.158;2022-12-10T01:31:06;33;28;
49914;PMS5003;35806;47.958;13.158;2022-12-10T01:33:35;31;25;
49914;PMS5003;35806;47.958;13.158;2022-12-10T01:36:03;27;23;
49914;PMS5003;35806;47.958;13.158;2022-12-10T01:38:32;39;30;
49914;PMS5003;35806;47.958;13.158;2022-12-10T01:40:59;26;24;
49914;PMS5003;35806;47.958;13.158;2022-12-10T01:43:27;32;27;
49914;PMS5003;35806;47.958;13.158;2022-12-10T01:45:54;33;31;
49914;PMS5003;35806;47.958;13.158;2022-12-10T01:48:21;32;27;
49914;PMS5003;35806;47.958;13.158;2022-12-10T01:50:48;37;35;
49914;PMS5003;35806;47.958;13.158;2022-12-10T01:53:15;31;28;
49914;PMS5003;35806;47.958;13.158;2022-12-10T01:55:45;34;32;
49914;PMS5003;35806;47.958;13.158;2022-12-10T01:58:14;37;32;
49914;PMS5003;35806;47.958;13.158;2022-12-10T02:15:30;43;35;
49914;PMS5003;35806;47.958;13.158;2022-12-10T02:18:02;30;30;
49914;PMS5003;35806;47.958;13.158;2022-12-10T02:20:34;33;27;
49914;PMS5003;35806;47.958;13.158;2022-12-10T02:23:06;37;34;
49914;PMS5003;35806;47.958;13.158;2022-12-10T02:25:40;47;39;
49914;PMS5003;35806;47.958;13.158;2022-12-10T02:28:13;34;26;
49914;PMS5003;35806;47.958;13.158;2022-12-10T02:30:49;39;33;
49914;PMS5003;35806;47.958;13.158;2022-12-10T02:33:22;28;27;
49914;PMS5003;35806;47.958;13.158;2022-12-10T02:35:54;39;37;
49914;PMS5003;35806;47.958;13.158;2022-12-10T02:38:23;37;31;
49914;PMS5003;35806;47.958;13.158;2022-12-10T02:40:55;39;32;
49914;PMS5003;35806;47.958;13.158;2022-12-10T02:43:27;34;29;
49914;PMS5003;35806;47.958;13.158;2022-12-10T02:45:56;40;34;
49914;PMS5003;35806;47.958;13.158;2022-12-10T02:48:25;33;33;
49914;PMS5003;35806;47.958;13.158;2022-12-10T02:50:53;40;37;
49914;PMS5003;35806;47.958;13.158;2022-12-10T02:53:21;37;35;
49914;PMS5003;35806;47.958;13.158;2022-12-10T02:55:56;35;35;
49914;PMS5003;35806;47.958;13.158;2022-12-10T02:58:37;28;27;
49914;PMS5003;35806;47.958;13.158;2022-12-10T03:01:16;37;33;
49914;PMS5003;35806;47.958;13.158;2022-12-10T03:03:55;38;35;
49914;PMS5003;35806;47.958;13.158;2022-12-10T03:06:27;36;33;
49914;PMS5003;35806;47.958;13.158;2022-12-10T03:09:03;32;30;
49914;PMS5003;35806;47.958;13.158;2022-12-10T03:11:33;38;30;
49914;PMS5003;35806;47.958;13.158;2022-12-10T03:14:02;33;30;
49914;PMS5003;35806;47.958;13.158;2022-12-10T03:16:34;35;33;
49914;PMS5003;35806;47.958;13.158;2022-12-10T03:19:04;32;26;
49914;PMS5003;35806;47.958;13.158;2022-12-10T03:21:37;40;36;
49914;PMS5003;35806;47.958;13.158;2022-12-10T03:24:07;36;26;
49914;PMS5003;35806;47.958;13.158;2022-12-10T03:26:35;34;29;
49914;PMS5003;35806;47.958;13.158;2022-12-10T03:29:05;35;28;
49914;PMS5003;35806;47.958;13.158;2022-12-10T03:31:34;34;32;
49914;PMS5003;35806;47.958;13.158;2022-12-10T03:34:03;39;33;
49914;PMS5003;35806;47.958;13.158;2022-12-10T03:36:32;42;36;
49914;PMS5003;35806;47.958;13.158;2022-12-10T03:38:59;38;35;
49914;PMS5003;35806;47.958;13.158;2022-12-10T03:41:27;39;34;
49914;PMS5003;35806;47.958;13.158;2022-12-10T03:43:55;32;27;
49914;PMS5003;35806;47.958;13.158;2022-12-10T03:46:23;39;32;
49914;PMS5003;35806;47.958;13.158;2022-12-10T03:48:52;30;28;
49914;PMS5003;35806;47.958;13.158;2022-12-10T03:51:20;33;29;
49914;PMS5003;35806;47.958;13.158;2022-12-10T03:53:48;38;30;
49914;PMS5003;35806;47.958;13.158;2022-12-10T03:56:16;35;33;
49914;PMS5003;35806;47.958;13.158;2022-12-10T03:58:44;37;31;
49914;PMS5003;35806;47.958;13.158;2022-12-10T04:01:11;41;30;
49914;PMS5003;35806;47.958;13.158;2022-12-10T04:03:39;35;33;
49914;PMS5003;35806;47.958;13.158;2022-12-10T04:06:10;33;30;
49914;PMS5003;35806;47.958;13.158;2022-12-10T04:08:39;33;29;
49914;PMS5003;35806;47.958;13.158;2022-12-10T04:11:08;34;32;
49914;PMS5003;35806;47.958;13.158;2022-12-10T04:13:37;34;32;
49914;PMS5003;35806;47.958;13.158;2022-12-10T04:16:05;28;25;
49914;PMS5003;35806;47.958;13.158;2022-12-10T04:18:33;27;26;
49914;PMS5003;35806;47.958;13.158;2022-12-10T04:21:00;31;25;
49914;PMS5003;35806;47.958;13.158;2022-12-10T04:23:27;29;23;
49914;PMS5003;35806;47.958;13.158;2022-12-10T04:25:54;31;26;
49914;PMS5003;35806;47.958;13.158;2022-12-10T04:28:21;35;29;
49914;PMS5003;35806;47.958;13.158;2022-12-10T04:30:49;38;31;
49914;PMS5003;35806;47.958;13.158;2022-12-10T04:33:16;37;32;
49914;PMS5003;35806;47.958;13.158;2022-12-10T04:35:43;35;25;
49914;PMS5003;35806;47.958;13.158;2022-12-10T04:38:10;35;29;
49914;PMS5003;35806;47.958;13.158;2022-12-10T04:40:37;31;29;
49914;PMS5003;35806;47.958;13.158;2022-12-10T04:43:05;33;26;
49914;PMS5003;35806;47.958;13.158;2022-12-10T04:45:33;28;26;
49914;PMS5003;35806;47.958;13.158;2022-12-10T04:48:00;33;27;
49914;PMS5003;35806;47.958;13.158;2022-12-10T04:50:27;32;27;
49914;PMS5003;35806;47.958;13.158;2022-12-10T04:52:54;31;31;
49914;PMS5003;35806;47.958;13.158;2022-12-10T04:55:22;26;25;
49914;PMS5003;35806;47.958;13.158;2022-12-10T04:57:50;30;30;
49914;PMS5003;35806;47.958;13.158;2022-12-10T05:00:17;23;23;
49914;PMS5003;35806;47.958;13.158;2022-12-10T05:02:46;27;25;
49914;PMS5003;35806;47.958;13.158;2022-12-10T05:05:14;27;25;
49914;PMS5003;35806;47.958;13.158;2022-12-10T05:07:42;28;25;
49914;PMS5003;35806;47.958;13.158;2022-12-10T05:10:09;27;25;
49914;PMS5003;35806;47.958;13.158;2022-12-10T05:12:36;28;25;
49914;PMS5003;35806;47.958;13.158;2022-12-10T05:15:04;38;33;
49914;PMS5003;35806;47.958;13.158;2022-12-10T05:17:32;31;29;
49914;PMS5003;35806;47.958;13.158;2022-12-10T05:20:00;29;27;
49914;PMS5003;35806;47.958;13.158;2022-12-10T05:22:27;36;31;
49914;PMS5003;35806;47.958;13.158;2022-12-10T05:24:54;31;29;
49914;PMS5003;35806;47.958;13.158;2022-12-10T05:27:21;33;31;
49914;PMS5003;35806;47.958;13.158;2022-12-10T05:29:48;34;30;
49914;PMS5003;35806;47.958;13.158;2022-12-10T05:32:16;42;38;
49914;PMS5003;35806;47.958;13.158;2022-12-10T05:34:43;31;29;
49914;PMS5003;35806;47.958;13.158;2022-12-10T05:37:11;31;30;
49914;PMS5003;35806;47.958;13.158;2022-12-10T05:39:38;27;24;
49914;PMS5003;35806;47.958;13.158;2022-12-10T05:42:05;31;30;
49914;PMS5003;35806;47.958;13.158;2022-12-10T05:44:33;28;25;
49914;PMS5003;35806;47.958;13.158;2022-12-10T05:47:01;29;28;
49914;PMS5003;35806;47.958;13.158;2022-12-10T05:49:28;26;23;
49914;PMS5003;35806;47.958;13.158;2022-12-10T05:51:55;32;28;
49914;PMS5003;35806;47.958;13.158;2022-12-10T05:54:22;28;27;
49914;PMS5003;35806;47.958;13.158;2022-12-10T05:56:49;27;25;
49914;PMS5003;35806;47.958;13.158;2022-12-10T05:59:17;27;24;
49914;PMS5003;35806;47.958;13.158;2022-12-10T06:01:44;38;35;
49914;PMS5003;35806;47.958;13.158;2022-12-10T06:04:12;29;25;
49914;PMS5003;35806;47.958;13.158;2022-12-10T06:06:39;33;33;
49914;PMS5003;35806;47.958;13.158;2022-12-10T06:09:09;33;33;
49914;PMS5003;35806;47.958;13.158;2022-12-10T06:11:38;31;28;
49914;PMS5003;35806;47.958;13.158;2022-12-10T06:14:06;31;28;
49914;PMS5003;35806;47.958;13.158;2022-12-10T06:16:33;28;24;
49914;PMS5003;35806;47.958;13.158;2022-12-10T06:19:00;29;25;
49914;PMS5003;35806;47.958;13.158;2022-12-10T06:21:27;35;32;
49914;PMS5003;35806;47.958;13.158;2022-12-10T06:23:55;32;30;
49914;PMS5003;35806;47.958;13.158;2022-12-10T06:26:23;27;27;
49914;PMS5003;35806;47.958;13.158;2022-12-10T06:28:52;24;21;
49914;PMS5003;35806;47.958;13.158;2022-12-10T06:31:20;31;22;
49914;PMS5003;35806;47.958;13.158;2022-12-10T06:33:48;32;25;
49914;PMS5003;35806;47.958;13.158;2022-12-10T06:36:15;31;30;
49914;PMS5003;35806;47.958;13.158;2022-12-10T06:38:44;26;25;
49914;PMS5003;35806;47.958;13.158;2022-12-10T06:41:13;35;32;
49914;PMS5003;35806;47.958;13.158;2022-12-10T06:43:42;36;31;
49914;PMS5003;35806;47.958;13.158;2022-12-10T06:46:10;25;25;
49914;PMS5003;35806;47.958;13.158;2022-12-10T06:48:40;30;28;
49914;PMS5003;35806;47.958;13.158;2022-12-10T06:51:09;28;25;
49914;PMS5003;35806;47.958;13.158;2022-12-10T06:53:38;34;30;
49914;PMS5003;35806;47.958;13.158;2022-12-10T06:56:07;31;28;
49914;PMS5003;35806;47.958;13.158;2022-12-10T06:58:38;30;24;
49914;PMS5003;35806;47.958;13.158;2022-12-10T07:01:06;31;26;
49914;PMS5003;35806;47.958;13.158;2022-12-10T07:03:34;38;35;
49914;PMS5003;35806;47.958;13.158;2022-12-10T07:06:03;36;30;
49914;PMS5003;35806;47.958;13.158;2022-12-10T07:08:31;37;35;
49914;PMS5003;35806;47.958;13.158;2022-12-10T07:10:59;34;33;
49914;PMS5003;35806;47.958;13.158;2022-12-10T07:13:30;31;31;
49914;PMS5003;35806;47.958;13.158;2022-12-10T07:15:57;30;28;
49914;PMS5003;35806;47.958;13.158;2022-12-10T07:18:25;31;25;
49914;PMS5003;35806;47.958;13.158;2022-12-10T07:20:52;26;26;
49914;PMS5003;35806;47.958;13.158;2022-12-10T07:23:19;30;29;
49914;PMS5003;35806;47.958;13.158;2022-12-10T07:25:46;28;22;
49914;PMS5003;35806;47.958;13.158;2022-12-10T07:28:13;35;33;
49914;PMS5003;35806;47.958;13.158;2022-12-10T07:30:40;26;26;
49914;PMS5003;35806;47.958;13.158;2022-12-10T07:33:08;33;30;
49914;PMS5003;35806;47.958;13.158;2022-12-10T07:35:37;25;23;
49914;PMS5003;35806;47.958;13.158;2022-12-10T07:38:04;28;26;
49914;PMS5003;35806;47.958;13.158;2022-12-10T07:40:32;26;24;
49914;PMS5003;35806;47.958;13.158;2022-12-10T07:42:59;31;29;
49914;PMS5003;35806;47.958;13.158;2022-12-10T07:45:26;29;28;
49914;PMS5003;35806;47.958;13.158;2022-12-10T07:47:53;29;28;
49914;PMS5003;35806;47.958;13.158;2022-12-10T07:50:21;35;28;
49914;PMS5003;35806;47.958;13.158;2022-12-10T07:52:48;32;32;
49914;PMS5003;35806;47.958;13.158;2022-12-10T07:55:16;23;23;
49914;PMS5003;35806;47.958;13.158;2022-12-10T07:57:43;32;31;
49914;PMS5003;35806;47.958;13.158;2022-12-10T08:00:11;30;28;
49914;PMS5003;35806;47.958;13.158;2022-12-10T08:02:39;27;25;
49914;PMS5003;35806;47.958;13.158;2022-12-10T08:05:06;37;31;
49914;PMS5003;35806;47.958;13.158;2022-12-10T08:07:34;36;33;
49914;PMS5003;35806;47.958;13.158;2022-12-10T08:10:01;33;30;
49914;PMS5003;35806;47.958;13.158;2022-12-10T08:12:29;29;25;
49914;PMS5003;35806;47.958;13.158;2022-12-10T08:14:56;29;26;
49914;PMS5003;35806;47.958;13.158;2022-12-10T08:17:24;30;27;
49914;PMS5003;35806;47.958;13.158;2022-12-10T08:19:51;29;26;
49914;PMS5003;35806;47.958;13.158;2022-12-10T08:22:18;38;34;
49914;PMS5003;35806;47.958;13.158;2022-12-10T08:24:45;35;29;
49914;PMS5003;35806;47.958;13.158;2022-12-10T08:27:12;33;33;
49914;PMS5003;35806;47.958;13.158;2022-12-10T08:29:39;27;26;
49914;PMS5003;35806;47.958;13.158;2022-12-10T08:32:17;33;28;
49914;PMS5003;35806;47.958;13.158;2022-12-10T08:34:44;29;25;
49914;PMS5003;35806;47.958;13.158;2022-12-10T08:37:11;27;26;
49914;PMS5003;35806;47.958;13.158;2022-12-10T08:39:39;32;27;
49914;PMS5003;35806;47.958;13.158;2022-12-10T08:42:06;40;34;
49914;PMS5003;35806;47.958;13.158;2022-12-10T08:44:33;38;34;
49914;PMS5003;35806;47.958;13.158;2022-12-10T08:47:00;37;34;
49914;PMS5003;35806;47.958;13.158;2022-12-10T08:49:28;36;32;
49914;PMS5003;35806;47.958;13.158;2022-12-10T08:52:00;33;27;
49914;PMS5003;35806;47.958;13.158;2022-12-10T08:54:27;35;28;
49914;PMS5003;35806;47.958;13.158;2022-12-10T08:56:54;32;28;
49914;PMS5003;35806;47.958;13.158;2022-12-10T08:59:22;40;36;
49914;PMS5003;35806;47.958;13.158;2022-12-10T09:01:51;37;36;
49914;PMS5003;35806;47.958;13.158;2022-12-10T09:04:18;36;30;
49914;PMS5003;35806;47.958;13.158;2022-12-10T09:06:45;33;30;
49914;PMS5003;35806;47.958;13.158;2022-12-10T09:09:13;37;33;
49914;PMS5003;35806;47.958;13.158;2022-12-10T09:11:40;38;32;
49914;PMS5003;35806;47.958;13.158;2022-12-10T09:14:08;40;34;
49914;PMS5003;35806;47.958;13.158;2022-12-10T09:16:35;34;32;
49914;PMS5003;35806;47.958;13.158;2022-12-10T09:19:04;37;35;
49914;PMS5003;35806;47.958;13.158;2022-12-10T09:21:32;36;32;
49914;PMS5003;35806;47.958;13.158;2022-12-10T09:23:59;33;28;
49914;PMS5003;35806;47.958;13.158;2022-12-10T09:26:26;41;39;
49914;PMS5003;35806;47.958;13.158;2022-12-10T09:28:54;41;32;
49914;PMS5003;35806;47.958;13.158;2022-12-10T09:31:21;40;33;
49914;PMS5003;35806;47.958;13.158;2022-12-10T09:33:49;36;32;
49914;PMS5003;35806;47.958;13.158;2022-12-10T09:36:18;41;33;
49914;PMS5003;35806;47.958;13.158;2022-12-10T09:38:47;39;36;
49914;PMS5003;35806;47.958;13.158;2022-12-10T09:41:20;34;31;
49914;PMS5003;35806;47.958;13.158;2022-12-10T09:44:03;36;32;
49914;PMS5003;35806;47.958;13.158;2022-12-10T09:46:41;43;36;
49914;PMS5003;35806;47.958;13.158;2022-12-10T09:49:17;43;38;
49914;PMS5003;35806;47.958;13.158;2022-12-10T09:51:53;44;40;
49914;PMS5003;35806;47.958;13.158;2022-12-10T09:54:24;43;39;
49914;PMS5003;35806;47.958;13.158;2022-12-10T09:56:54;42;37;
49914;PMS5003;35806;47.958;13.158;2022-12-10T09:59:24;41;38;
49914;PMS5003;35806;47.958;13.158;2022-12-10T10:02:00;47;36;
49914;PMS5003;35806;47.958;13.158;2022-12-10T10:04:30;39;38;
49914;PMS5003;35806;47.958;13.158;2022-12-10T10:06:57;37;31;
49914;PMS5003;35806;47.958;13.158;2022-12-10T10:09:25;35;33;
49914;PMS5003;35806;47.958;13.158;2022-12-10T10:11:53;37;31;
49914;PMS5003;35806;47.958;13.158;2022-12-10T10:14:22;28;27;
49914;PMS5003;35806;47.958;13.158;2022-12-10T10:16:53;38;35;
49914;PMS5003;35806;47.958;13.158;2022-12-10T10:19:26;39;34;
49914;PMS5003;35806;47.958;13.158;2022-12-10T10:21:56;38;37;
49914;PMS5003;35806;47.958;13.158;2022-12-10T10:24:25;34;33;
49914;PMS5003;35806;47.958;13.158;2022-12-10T10:26:59;42;35;
49914;PMS5003;35806;47.958;13.158;2022-12-10T10:29:38;39;35;
49914;PMS5003;35806;47.958;13.158;2022-12-10T10:32:10;33;31;
49914;PMS5003;35806;47.958;13.158;2022-12-10T10:34:40;35;34;
49914;PMS5003;35806;47.958;13.158;2022-12-10T10:37:11;46;43;
49914;PMS5003;35806;47.958;13.158;2022-12-10T10:39:46;41;32;
49914;PMS5003;35806;47.958;13.158;2022-12-10T10:42:22;45;37;
49914;PMS5003;35806;47.958;13.158;2022-12-10T10:44:59;43;37;
49914;PMS5003;35806;47.958;13.158;2022-12-10T10:47:28;45;40;
49914;PMS5003;35806;47.958;13.158;2022-12-10T10:49:56;45;41;
49914;PMS5003;35806;47.958;13.158;2022-12-10T10:52:27;54;44;
49914;PMS5003;35806;47.958;13.158;2022-12-10T10:54:57;40;38;
49914;PMS5003;35806;47.958;13.158;2022-12-10T10:57:25;38;37;
49914;PMS5003;35806;47.958;13.158;2022-12-10T11:00:00;33;31;
49914;PMS5003;35806;47.958;13.158;2022-12-10T11:02:32;38;38;
49914;PMS5003;35806;47.958;13.158;2022-12-10T11:05:05;43;42;
49914;PMS5003;35806;47.958;13.158;2022-12-10T11:07:35;43;39;
49914;PMS5003;35806;47.958;13.158;2022-12-10T11:10:17;42;36;
49914;PMS5003;35806;47.958;13.158;2022-12-10T11:12:53;45;41;
49914;PMS5003;35806;47.958;13.158;2022-12-10T11:15:38;48;43;
49914;PMS5003;35806;47.958;13.158;2022-12-10T11:18:21;39;35;
49914;PMS5003;35806;47.958;13.158;2022-12-10T11:20:57;40;34;
49914;PMS5003;35806;47.958;13.158;2022-12-10T11:23:27;35;30;
49914;PMS5003;35806;47.958;13.158;2022-12-10T11:25:57;39;33;
49914;PMS5003;35806;47.958;13.158;2022-12-10T11:28:39;41;37;
49914;PMS5003;35806;47.958;13.158;2022-12-10T11:31:21;52;44;
49914;PMS5003;35806;47.958;13.158;2022-12-10T11:34:01;44;43;
49914;PMS5003;35806;47.958;13.158;2022-12-10T11:36:36;44;38;
49914;PMS5003;35806;47.958;13.158;2022-12-10T11:39:17;39;36;
49914;PMS5003;35806;47.958;13.158;2022-12-10T11:41:53;42;39;
49914;PMS5003;35806;47.958;13.158;2022-12-10T11:44:31;35;32;
49914;PMS5003;35806;47.958;13.158;2022-12-10T11:47:10;35;33;
49914;PMS5003;35806;47.958;13.158;2022-12-10T11:49:52;32;30;
49914;PMS5003;35806;47.958;13.158;2022-12-10T11:52:30;38;37;
49914;PMS5003;35806;47.958;13.158;2022-12-10T11:55:17;36;34;
49914;PMS5003;35806;47.958;13.158;2022-12-10T11:57:55;36;34;
49914;PMS5003;35806;47.958;13.158;2022-12-10T11:58:27;37;35;
49914;PMS5003;35806;47.958;13.158;2022-12-10T12:01:09;39;32;
49914;PMS5003;35806;47.958;13.158;2022-12-10T12:03:50;37;33;
49914;PMS5003;35806;47.958;13.158;2022-12-10T12:06:37;35;32;
49914;PMS5003;35806;47.958;13.158;2022-12-10T12:09:19;43;36;
49914;PMS5003;35806;47.958;13.158;2022-12-10T12:11:57;44;39;
49914;PMS5003;35806;47.958;13.158;2022-12-10T12:14:39;44;40;
49914;PMS5003;35806;47.958;13.158;2022-12-10T12:17:11;47;43;
49914;PMS5003;35806;47.958;13.158;2022-12-10T12:19:44;57;49;
49914;PMS5003;35806;47.958;13.158;2022-12-10T12:22:16;48;44;
49914;PMS5003;35806;47.958;13.158;2022-12-10T12:24:50;46;38;
49914;PMS5003;35806;47.958;13.158;2022-12-10T12:27:23;44;38;
49914;PMS5003;35806;47.958;13.158;2022-12-10T12:29:58;53;44;
49914;PMS5003;35806;47.958;13.158;2022-12-10T12:32:31;43;40;
49914;PMS5003;35806;47.958;13.158;2022-12-10T12:35:10;53;44;
49914;PMS5003;35806;47.958;13.158;2022-12-10T12:37:45;47;43;
49914;PMS5003;35806;47.958;13.158;2022-12-10T12:40:21;55;49;
49914;PMS5003;35806;47.958;13.158;2022-12-10T12:42:56;44;41;
49914;PMS5003;35806;47.958;13.158;2022-12-10T12:45:30;51;47;
49914;PMS5003;35806;47.958;13.158;2022-12-10T12:48:02;51;49;
49914;PMS5003;35806;47.958;13.158;2022-12-10T12:50:41;52;47;
49914;PMS5003;35806;47.958;13.158;2022-12-10T12:53:11;54;50;
49914;PMS5003;35806;47.958;13.158;2022-12-10T12:55:44;53;43;
49914;PMS5003;35806;47.958;13.158;2022-12-10T12:58:23;51;42;
49914;PMS5003;35806;47.958;13.158;2022-12-10T13:00:57;49;47;
49914;PMS5003;35806;47.958;13.158;2022-12-10T13:03:33;53;44;
49914;PMS5003;35806;47.958;13.158;2022-12-10T13:06:19;54;44;
49914;PMS5003;35806;47.958;13.158;2022-12-10T13:08:50;47;42;
49914;PMS5003;35806;47.958;13.158;2022-12-10T13:11:33;47;41;
49914;PMS5003;35806;47.958;13.158;2022-12-10T13:14:03;52;43;
49914;PMS5003;35806;47.958;13.158;2022-12-10T13:16:49;51;44;
49914;PMS5003;35806;47.958;13.158;2022-12-10T13:20:40;52;41;
49914;PMS5003;35806;47.958;13.158;2022-12-10T13:23:28;55;46;
49914;PMS5003;35806;47.958;13.158;2022-12-10T13:25:58;50;44;
49914;PMS5003;35806;47.958;13.158;2022-12-10T13:28:28;52;47;
49914;PMS5003;35806;47.958;13.158;2022-12-10T13:31:06;63;49;
49914;PMS5003;35806;47.958;13.158;2022-12-10T13:33:46;48;42;
49914;PMS5003;35806;47.958;13.158;2022-12-10T13:36:19;43;38;
49914;PMS5003;35806;47.958;13.158;2022-12-10T13:38:57;56;44;
49914;PMS5003;35806;47.958;13.158;2022-12-10T13:41:39;37;37;
49914;PMS5003;35806;47.958;13.158;2022-12-10T13:44:48;50;42;
49914;PMS5003;35806;47.958;13.158;2022-12-10T13:47:25;44;39;
49914;PMS5003;35806;47.958;13.158;2022-12-10T13:49:59;56;47;
49914;PMS5003;35806;47.958;13.158;2022-12-10T13:52:29;50;46;
49914;PMS5003;35806;47.958;13.158;2022-12-10T13:55:19;50;45;
49914;PMS5003;35806;47.958;13.158;2022-12-10T13:57:58;54;49;
49914;PMS5003;35806;47.958;13.158;2022-12-10T14:00:40;55;45;
49914;PMS5003;35806;47.958;13.158;2022-12-10T14:03:23;51;46;
49914;PMS5003;35806;47.958;13.158;2022-12-10T14:06:11;57;48;
49914;PMS5003;35806;47.958;13.158;2022-12-10T14:08:44;62;52;
49914;PMS5003;35806;47.958;13.158;2022-12-10T14:11:21;57;48;
49914;PMS5003;35806;47.958;13.158;2022-12-10T14:13:52;58;47;
49914;PMS5003;35806;47.958;13.158;2022-12-10T14:16:23;60;44;
49914;PMS5003;35806;47.958;13.158;2022-12-10T14:18:55;54;45;
49914;PMS5003;35806;47.958;13.158;2022-12-10T14:21:26;51;45;
49914;PMS5003;35806;47.958;13.158;2022-12-10T14:23:57;59;52;
49914;PMS5003;35806;47.958;13.158;2022-12-10T14:26:27;50;46;
49914;PMS5003;35806;47.958;13.158;2022-12-10T14:28:55;50;40;
49914;PMS5003;35806;47.958;13.158;2022-12-10T14:31:26;56;43;
49914;PMS5003;35806;47.958;13.158;2022-12-10T14:33:57;46;41;
49914;PMS5003;35806;47.958;13.158;2022-12-10T14:36:27;45;39;
49914;PMS5003;35806;47.958;13.158;2022-12-10T14:38:57;50;42;
49914;PMS5003;35806;47.958;13.158;2022-12-10T14:41:25;44;40;
49914;PMS5003;35806;47.958;13.158;2022-12-10T14:43:56;42;38;
49914;PMS5003;35806;47.958;13.158;2022-12-10T14:46:28;44;38;
49914;PMS5003;35806;47.958;13.158;2022-12-10T14:48:57;53;44;
49914;PMS5003;35806;47.958;13.158;2022-12-10T14:51:25;59;43;
49914;PMS5003;35806;47.958;13.158;2022-12-10T14:53:59;47;39;
49914;PMS5003;35806;47.958;13.158;2022-12-10T14:56:27;50;45;
49914;PMS5003;35806;47.958;13.158;2022-12-10T14:59:01;51;44;
49914;PMS5003;35806;47.958;13.158;2022-12-10T15:01:34;58;46;
49914;PMS5003;35806;47.958;13.158;2022-12-10T15:04:05;51;44;
49914;PMS5003;35806;47.958;13.158;2022-12-10T15:06:39;55;44;
49914;PMS5003;35806;47.958;13.158;2022-12-10T15:09:09;58;48;
49914;PMS5003;35806;47.958;13.158;2022-12-10T15:11:41;55;47;
49914;PMS5003;35806;47.958;13.158;2022-12-10T15:14:10;50;45;
49914;PMS5003;35806;47.958;13.158;2022-12-10T15:16:44;60;45;
49914;PMS5003;35806;47.958;13.158;2022-12-10T15:19:17;52;47;
49914;PMS5003;35806;47.958;13.158;2022-12-10T15:21:47;55;49;
49914;PMS5003;35806;47.958;13.158;2022-12-10T15:24:17;52;42;
49914;PMS5003;35806;47.958;13.158;2022-12-10T15:26:48;58;54;
49914;PMS5003;35806;47.958;13.158;2022-12-10T15:29:33;51;42;
49914;PMS5003;35806;47.958;13.158;2022-12-10T15:32:04;44;36;
49914;PMS5003;35806;47.958;13.158;2022-12-10T15:34:38;117;109;
49914;PMS5003;35806;47.958;13.158;2022-12-10T15:37:14;47;42;
49914;PMS5003;35806;47.958;13.158;2022-12-10T15:39:46;117;101;
49914;PMS5003;35806;47.958;13.158;2022-12-10T15:42:38;54;44;
49914;PMS5003;35806;47.958;13.158;2022-12-10T15:45:12;66;57;
49914;PMS5003;35806;47.958;13.158;2022-12-10T15:47:45;57;49;
49914;PMS5003;35806;47.958;13.158;2022-12-10T15:50:13;80;63;
49914;PMS5003;35806;47.958;13.158;2022-12-10T15:52:41;84;68;
49914;PMS5003;35806;47.958;13.158;2022-12-10T15:55:09;63;54;
49914;PMS5003;35806;47.958;13.158;2022-12-10T15:57:38;54;51;
49914;PMS5003;35806;47.958;13.158;2022-12-10T16:00:07;47;42;
49914;PMS5003;35806;47.958;13.158;2022-12-10T16:02:45;70;59;
49914;PMS5003;35806;47.958;13.158;2022-12-10T16:05:15;57;46;
49914;PMS5003;35806;47.958;13.158;2022-12-10T16:07:45;73;60;
49914;PMS5003;35806;47.958;13.158;2022-12-10T16:10:14;71;63;
49914;PMS5003;35806;47.958;13.158;2022-12-10T16:12:45;67;60;
49914;PMS5003;35806;47.958;13.158;2022-12-10T16:15:15;128;109;
49914;PMS5003;35806;47.958;13.158;2022-12-10T16:17:46;96;92;
49914;PMS5003;35806;47.958;13.158;2022-12-10T16:20:19;165;140;
49914;PMS5003;35806;47.958;13.158;2022-12-10T16:22:50;94;78;
49914;PMS5003;35806;47.958;13.158;2022-12-10T16:25:17;57;54;
49914;PMS5003;35806;47.958;13.158;2022-12-10T16:27:45;104;89;
49914;PMS5003;35806;47.958;13.158;2022-12-10T16:30:13;47;44;
49914;PMS5003;35806;47.958;13.158;2022-12-10T16:32:44;62;56;
49914;PMS5003;35806;47.958;13.158;2022-12-10T16:35:12;42;36;
49914;PMS5003;35806;47.958;13.158;2022-12-10T16:37:41;74;68;
49914;PMS5003;35806;47.958;13.158;2022-12-10T16:40:14;47;46;